createdAt,value
2023-05-04T00:00:57.988Z,1.88
2023-05-04T00:03:24.541Z,1.00
2023-05-04T00:05:51.145Z,1.10
2023-05-04T00:08:17.731Z,1.10
2023-05-04T00:10:44.176Z,1.30
2023-05-04T00:13:10.665Z,1.10
2023-05-04T00:15:37.327Z,1.70
2023-05-04T00:18:03.932Z,1.30
2023-05-04T00:20:30.397Z,1.77
2023-05-04T00:22:56.833Z,2.55
2023-05-04T00:25:23.229Z,2.67
2023-05-04T00:27:52.284Z,2.08
2023-05-04T00:30:18.675Z,2.10
2023-05-04T00:32:45.188Z,2.42
2023-05-04T00:35:12.669Z,1.90
2023-05-04T00:37:39.166Z,2.05
2023-05-04T00:40:06.522Z,1.92
2023-05-04T00:42:33.202Z,1.30
2023-05-04T00:44:59.580Z,1.63
2023-05-04T00:47:26.225Z,1.80
2023-05-04T00:49:52.752Z,1.20
2023-05-04T00:52:20.439Z,1.17
2023-05-04T00:54:47.387Z,1.05
2023-05-04T00:57:15.741Z,0.80
2023-05-04T00:59:42.151Z,1.10
2023-05-04T01:02:08.546Z,1.10
2023-05-04T01:04:35.134Z,1.25
2023-05-04T01:07:01.623Z,1.30
2023-05-04T01:09:40.162Z,1.50
2023-05-04T01:12:10.219Z,1.02
2023-05-04T01:14:37.345Z,1.10
2023-05-04T01:17:05.321Z,1.30
2023-05-04T01:19:31.983Z,1.10
2023-05-04T01:21:58.580Z,0.88
2023-05-04T01:24:26.668Z,0.90
2023-05-04T01:26:57.320Z,1.10
2023-05-04T01:29:38.202Z,0.80
2023-05-04T01:32:04.910Z,1.23
2023-05-04T01:34:31.360Z,0.80
2023-05-04T01:36:57.792Z,0.75
2023-05-04T01:39:24.965Z,0.98
2023-05-04T01:41:51.365Z,0.80
2023-05-04T01:44:17.758Z,1.00
2023-05-04T01:46:44.307Z,1.10
2023-05-04T01:49:10.734Z,0.88
2023-05-04T01:51:37.234Z,1.08
2023-05-04T01:54:03.775Z,0.90
2023-05-04T01:56:30.371Z,1.00
2023-05-04T01:58:56.789Z,0.90
2023-05-04T02:01:23.222Z,0.93
2023-05-04T02:03:49.862Z,0.85
2023-05-04T02:06:16.375Z,0.80
2023-05-04T02:08:42.766Z,0.80
2023-05-04T02:11:09.204Z,1.10
2023-05-04T02:13:36.590Z,0.95
2023-05-04T02:16:03.162Z,0.88
2023-05-04T02:18:29.606Z,0.90
2023-05-04T02:20:56.019Z,0.98
2023-05-04T02:23:22.494Z,0.95
2023-05-04T02:25:48.915Z,0.80
2023-05-04T02:28:15.415Z,0.88
2023-05-04T02:30:42.257Z,0.90
2023-05-04T02:33:08.901Z,0.90
2023-05-04T02:35:35.574Z,1.20
2023-05-04T02:38:02.117Z,1.10
2023-05-04T02:40:28.671Z,0.88
2023-05-04T02:42:56.002Z,1.15
2023-05-04T02:45:22.516Z,0.70
2023-05-04T02:47:49.005Z,1.08
2023-05-04T02:50:15.545Z,1.77
2023-05-04T02:52:41.974Z,0.80
2023-05-04T02:55:08.604Z,0.75
2023-05-04T02:57:35.055Z,0.90
2023-05-04T03:00:01.499Z,0.68
2023-05-04T03:02:28.014Z,0.65
2023-05-04T03:04:54.507Z,1.10
2023-05-04T03:07:20.990Z,0.82
2023-05-04T03:09:48.866Z,1.00
2023-05-04T03:12:15.597Z,0.90
2023-05-04T03:14:42.029Z,1.02
2023-05-04T03:17:08.557Z,1.40
2023-05-04T03:19:34.964Z,0.90
2023-05-04T03:22:01.449Z,1.25
2023-05-04T03:24:27.870Z,0.75
2023-05-04T03:26:54.742Z,0.52
2023-05-04T03:29:21.272Z,0.98
2023-05-04T03:31:47.762Z,0.98
2023-05-04T03:34:14.923Z,0.70
2023-05-04T03:36:41.380Z,0.85
2023-05-04T03:39:07.905Z,0.90
2023-05-04T03:41:34.353Z,0.93
2023-05-04T03:44:00.919Z,0.93
2023-05-04T03:46:27.397Z,1.00
2023-05-04T03:48:53.969Z,1.25
2023-05-04T03:51:22.540Z,0.88
2023-05-04T03:53:48.947Z,0.90
2023-05-04T03:56:15.364Z,0.68
2023-05-04T03:58:41.903Z,0.93
2023-05-04T04:01:08.359Z,0.90
2023-05-04T04:03:36.613Z,0.80
2023-05-04T04:06:03.800Z,1.10
2023-05-04T04:08:30.252Z,1.00
2023-05-04T04:10:56.717Z,0.77
2023-05-04T04:13:23.169Z,1.10
2023-05-04T04:15:50.376Z,1.00
2023-05-04T04:18:16.934Z,0.70
2023-05-04T04:20:43.341Z,0.88
2023-05-04T04:23:09.824Z,0.98
2023-05-04T04:25:36.747Z,0.80
2023-05-04T04:28:03.306Z,0.80
2023-05-04T04:30:29.751Z,0.82
2023-05-04T04:32:57.173Z,1.00
2023-05-04T04:35:23.862Z,1.02
2023-05-04T04:37:51.124Z,1.00
2023-05-04T04:40:18.144Z,1.15
2023-05-04T04:42:44.635Z,0.88
2023-05-04T04:45:11.184Z,0.95
2023-05-04T04:47:37.765Z,0.93
2023-05-04T04:50:05.577Z,1.00
2023-05-04T04:52:34.717Z,0.63
2023-05-04T04:55:01.374Z,0.88
2023-05-04T04:57:30.558Z,0.80
2023-05-04T04:59:58.123Z,0.75
2023-05-04T05:02:24.684Z,1.10
2023-05-04T05:04:51.152Z,0.90
2023-05-04T05:07:20.191Z,1.00
2023-05-04T05:09:46.673Z,0.90
2023-05-04T05:12:13.126Z,0.73
2023-05-04T05:14:39.511Z,1.20
2023-05-04T05:17:06.217Z,0.90
2023-05-04T05:19:37.108Z,0.90
2023-05-04T05:24:33.127Z,0.98
2023-05-04T05:27:00.373Z,1.55
2023-05-04T05:29:26.800Z,1.00
2023-05-04T05:31:53.274Z,0.90
2023-05-04T05:34:19.860Z,0.88
2023-05-04T05:36:46.383Z,0.85
2023-05-04T05:39:12.801Z,0.68
2023-05-04T05:41:39.182Z,1.00
2023-05-04T05:44:05.610Z,0.80
2023-05-04T05:46:32.039Z,0.90
2023-05-04T05:48:58.479Z,0.80
2023-05-04T05:51:24.915Z,0.80
2023-05-04T05:53:51.310Z,0.77
2023-05-04T05:56:17.720Z,1.05
2023-05-04T05:58:44.163Z,1.00
2023-05-04T06:01:10.641Z,1.35
2023-05-04T06:03:37.257Z,0.90
2023-05-04T06:06:04.990Z,0.63
2023-05-04T06:08:31.842Z,0.77
2023-05-04T06:10:58.285Z,0.77
2023-05-04T06:13:24.692Z,1.25
2023-05-04T06:15:52.003Z,0.80
2023-05-04T06:18:18.606Z,0.80
2023-05-04T06:20:45.032Z,0.70
2023-05-04T06:23:11.594Z,0.90
2023-05-04T06:25:38.006Z,0.73
2023-05-04T06:28:04.872Z,1.00
2023-05-04T06:30:31.295Z,0.90
2023-05-04T06:32:57.956Z,0.98
2023-05-04T06:35:24.467Z,0.90
2023-05-04T06:40:18.115Z,0.90
2023-05-04T06:42:44.554Z,0.90
2023-05-04T06:45:11.154Z,1.00
2023-05-04T06:47:37.837Z,0.75
2023-05-04T06:50:09.384Z,1.40
2023-05-04T06:52:38.412Z,0.90
2023-05-04T06:55:05.895Z,0.80
2023-05-04T06:57:32.631Z,0.70
2023-05-04T06:59:59.166Z,0.90
2023-05-04T07:02:25.708Z,1.05
2023-05-04T07:04:52.755Z,0.98
2023-05-04T07:07:19.436Z,1.02
2023-05-04T07:09:47.958Z,1.30
2023-05-04T07:12:14.444Z,1.42
2023-05-04T07:14:40.986Z,1.00
2023-05-04T07:17:10.041Z,1.00
2023-05-04T07:19:37.061Z,1.00
2023-05-04T07:22:03.510Z,1.00
2023-05-04T07:24:30.613Z,0.80
2023-05-04T07:26:57.122Z,0.98
2023-05-04T07:29:23.565Z,1.30
2023-05-04T07:31:49.966Z,1.27
2023-05-04T07:34:16.472Z,1.10
2023-05-04T07:36:43.584Z,0.90
2023-05-04T07:39:12.277Z,0.80
2023-05-04T07:41:38.657Z,0.80
2023-05-04T07:44:07.016Z,0.88
2023-05-04T07:46:33.738Z,0.85
2023-05-04T07:49:00.240Z,0.85
2023-05-04T07:51:26.642Z,0.90
2023-05-04T07:53:53.096Z,0.80
2023-05-04T07:56:19.507Z,0.75
2023-05-04T07:58:47.472Z,0.80
2023-05-04T08:01:13.895Z,0.82
2023-05-04T08:03:40.336Z,0.90
2023-05-04T08:06:08.002Z,1.00
2023-05-04T08:08:34.424Z,0.80
2023-05-04T08:11:12.286Z,0.88
2023-05-04T08:13:44.790Z,0.80
2023-05-04T08:16:11.185Z,0.70
2023-05-04T08:18:38.107Z,0.70
2023-05-04T08:21:04.590Z,0.90
2023-05-04T08:23:31.405Z,0.90
2023-05-04T08:25:58.036Z,0.80
2023-05-04T08:28:24.490Z,1.42
2023-05-04T08:30:50.903Z,1.42
2023-05-04T08:33:17.295Z,1.27
2023-05-04T08:35:43.865Z,1.10
2023-05-04T08:38:10.313Z,1.02
2023-05-04T08:40:40.439Z,0.80
2023-05-04T08:43:07.431Z,0.90
2023-05-04T08:45:37.449Z,0.80
2023-05-04T08:48:04.692Z,0.87
2023-05-04T08:50:32.873Z,0.95
2023-05-04T08:53:01.113Z,0.85
2023-05-04T08:55:27.737Z,1.00
2023-05-04T08:57:54.182Z,0.90
2023-05-04T09:00:21.430Z,0.70
2023-05-04T09:02:49.070Z,1.10
2023-05-04T09:05:16.031Z,0.77
2023-05-04T09:07:42.590Z,0.73
2023-05-04T09:10:09.335Z,0.70
2023-05-04T09:12:37.860Z,0.85
2023-05-04T09:15:24.718Z,0.82
2023-05-04T09:18:09.870Z,1.00
2023-05-04T09:20:48.498Z,0.60
2023-05-04T09:23:16.206Z,0.77
2023-05-04T09:25:49.916Z,0.75
2023-05-04T09:28:17.122Z,0.70
2023-05-04T09:30:44.022Z,0.98
2023-05-04T09:33:13.425Z,0.90
2023-05-04T09:35:40.315Z,0.70
2023-05-04T09:38:07.472Z,0.90
2023-05-04T09:40:38.101Z,1.20
2023-05-04T09:43:04.768Z,1.10
2023-05-04T09:45:49.122Z,0.80
2023-05-04T09:48:16.492Z,0.80
2023-05-04T09:50:51.097Z,0.70
2023-05-04T09:53:20.051Z,1.10
2023-05-04T09:55:47.784Z,0.93
2023-05-04T09:58:18.431Z,0.95
2023-05-04T10:00:45.619Z,0.90
2023-05-04T10:03:14.366Z,0.80
2023-05-04T10:05:40.996Z,0.70
2023-05-04T10:08:08.164Z,0.70
2023-05-04T10:10:34.966Z,0.77
2023-05-04T10:13:01.892Z,0.93
2023-05-04T10:15:28.329Z,0.93
2023-05-04T10:18:00.857Z,0.70
2023-05-04T10:20:37.387Z,0.80
2023-05-04T10:23:03.803Z,0.80
2023-05-04T10:25:42.067Z,0.82
2023-05-04T10:28:15.150Z,0.80
2023-05-04T10:30:41.749Z,0.90
2023-05-04T10:33:08.290Z,0.82
2023-05-04T10:35:34.765Z,0.70
2023-05-04T10:38:01.335Z,0.80
2023-05-04T10:40:33.702Z,0.70
2023-05-04T10:43:00.197Z,0.73
2023-05-04T10:45:40.023Z,0.80
2023-05-04T10:48:07.946Z,0.93
2023-05-04T10:50:46.738Z,0.70
2023-05-04T10:53:14.359Z,0.60
2023-05-04T10:55:43.646Z,0.80
2023-05-04T10:58:11.297Z,1.13
2023-05-04T11:00:38.822Z,1.20
2023-05-04T11:03:06.217Z,0.70
2023-05-04T11:05:45.071Z,0.95
2023-05-04T11:08:20.630Z,0.85
2023-05-04T11:10:48.202Z,0.70
2023-05-04T11:13:16.177Z,0.60
2023-05-04T11:15:49.813Z,0.95
2023-05-04T11:18:25.456Z,0.80
2023-05-04T11:20:51.968Z,0.80
2023-05-04T11:23:18.352Z,0.60
2023-05-04T11:25:44.773Z,0.80
2023-05-04T11:28:11.197Z,1.08
2023-05-04T11:30:42.331Z,0.90
2023-05-04T11:33:12.787Z,0.50
2023-05-04T11:35:39.314Z,0.68
2023-05-04T11:38:07.021Z,0.70
2023-05-04T11:40:36.186Z,0.60
2023-05-04T11:43:03.254Z,0.60
2023-05-04T11:45:29.714Z,0.50
2023-05-04T11:47:56.793Z,0.70
2023-05-04T11:50:23.713Z,0.77
2023-05-04T11:52:50.327Z,0.80
2023-05-04T11:55:27.489Z,1.30
2023-05-04T11:58:00.411Z,0.80
2023-05-04T12:00:39.862Z,0.65
2023-05-04T12:03:07.456Z,0.60
2023-05-04T12:05:34.850Z,0.73
2023-05-04T12:08:03.282Z,0.85
2023-05-04T12:10:31.255Z,0.95
2023-05-04T12:13:01.136Z,0.80
2023-05-04T12:15:31.807Z,0.77
2023-05-04T12:18:00.861Z,1.00
2023-05-04T12:20:29.331Z,0.85
2023-05-04T12:22:56.166Z,0.85
2023-05-04T12:25:23.518Z,0.90
2023-05-04T12:27:50.375Z,0.68
2023-05-04T12:30:17.052Z,0.70
2023-05-04T12:32:43.829Z,0.70
2023-05-04T12:35:10.601Z,0.70
2023-05-04T12:37:38.303Z,1.33
2023-05-04T12:40:14.097Z,0.70
2023-05-04T12:42:47.818Z,0.70
2023-05-04T12:45:16.108Z,0.70
2023-05-04T12:47:42.659Z,0.70
2023-05-04T12:50:09.342Z,0.63
2023-05-04T12:52:35.819Z,1.10
2023-05-04T12:55:02.254Z,1.00
2023-05-04T12:57:28.658Z,0.90
2023-05-04T12:59:55.117Z,0.68
2023-05-04T13:02:21.579Z,0.90
2023-05-04T13:04:47.976Z,0.95
2023-05-04T13:07:15.129Z,1.08
2023-05-04T13:09:41.739Z,1.02
2023-05-04T13:12:08.411Z,0.73
2023-05-04T13:14:39.329Z,0.75
2023-05-04T13:17:06.255Z,0.90
2023-05-04T13:19:32.645Z,0.80
2023-05-04T13:21:59.170Z,0.82
2023-05-04T13:24:26.217Z,0.90
2023-05-04T13:26:52.620Z,1.15
2023-05-04T13:29:19.028Z,0.90
2023-05-04T13:31:47.608Z,0.85
2023-05-04T13:34:14.042Z,0.60
2023-05-04T13:36:40.785Z,0.75
2023-05-04T13:39:07.166Z,0.90
2023-05-04T13:41:33.692Z,0.93
2023-05-04T13:44:00.095Z,0.77
2023-05-04T13:46:26.654Z,1.00
2023-05-04T13:48:54.689Z,0.60
2023-05-04T13:51:24.324Z,0.70
2023-05-04T13:53:50.797Z,0.60
2023-05-04T13:56:17.800Z,0.80
2023-05-04T13:58:44.298Z,0.70
2023-05-04T14:01:10.739Z,0.75
2023-05-04T14:03:37.149Z,0.70
2023-05-04T14:06:03.721Z,0.75
2023-05-04T14:08:30.150Z,0.52
2023-05-04T14:10:56.605Z,0.80
2023-05-04T14:13:23.317Z,0.60
2023-05-04T14:15:49.805Z,0.80
2023-05-04T14:18:16.677Z,0.90
2023-05-04T14:20:43.105Z,0.50
2023-05-04T14:23:09.892Z,0.70
2023-05-04T14:25:36.451Z,0.65
2023-05-04T14:28:02.884Z,0.60
2023-05-04T14:30:32.253Z,0.73
2023-05-04T14:32:58.722Z,0.80
2023-05-04T14:35:25.567Z,0.75
2023-05-04T14:37:52.106Z,0.60
2023-05-04T14:40:18.567Z,0.80
2023-05-04T14:42:44.965Z,1.75
2023-05-04T14:45:11.751Z,1.15
2023-05-04T14:47:38.244Z,0.70
2023-05-04T14:50:05.778Z,0.60
2023-05-04T14:52:32.431Z,0.65
2023-05-04T14:54:58.879Z,0.73
2023-05-04T14:57:25.292Z,0.43
2023-05-04T14:59:52.208Z,0.60
2023-05-04T15:02:19.192Z,0.60
2023-05-04T15:04:46.907Z,0.90
2023-05-04T15:07:15.885Z,0.60
2023-05-04T15:09:42.284Z,0.70
2023-05-04T15:12:09.021Z,1.00
2023-05-04T15:14:35.922Z,0.88
2023-05-04T15:17:02.580Z,0.55
2023-05-04T15:19:28.975Z,0.60
2023-05-04T15:21:55.623Z,0.50
2023-05-04T15:24:22.080Z,0.60
2023-05-04T15:26:48.541Z,0.60
2023-05-04T15:29:18.063Z,0.60
2023-05-04T15:31:44.669Z,0.70
2023-05-04T15:34:11.171Z,0.73
2023-05-04T15:36:37.612Z,0.70
2023-05-04T15:39:05.681Z,0.82
2023-05-04T15:41:32.625Z,0.68
2023-05-04T15:43:59.612Z,0.65
2023-05-04T15:46:28.641Z,0.50
2023-05-04T15:48:55.120Z,0.50
2023-05-04T15:51:21.628Z,0.55
2023-05-04T15:53:48.079Z,0.55
2023-05-04T15:56:15.016Z,0.70
2023-05-04T15:58:41.479Z,1.33
2023-05-04T16:01:10.715Z,0.65
2023-05-04T16:03:37.878Z,0.60
2023-05-04T16:06:06.869Z,0.40
2023-05-04T16:08:33.455Z,0.50
2023-05-04T16:10:59.921Z,0.50
2023-05-04T16:13:26.491Z,1.00
2023-05-04T16:15:53.317Z,0.60
2023-05-04T16:18:19.863Z,0.60
2023-05-04T16:20:46.732Z,0.57
2023-05-04T16:23:14.664Z,0.70
2023-05-04T16:25:41.269Z,0.50
2023-05-04T16:28:07.879Z,0.70
2023-05-04T16:30:34.514Z,0.70
2023-05-04T16:33:01.259Z,1.65
2023-05-04T16:35:27.825Z,0.75
2023-05-04T16:37:54.290Z,0.40
2023-05-04T16:40:20.756Z,0.60
2023-05-04T16:42:47.464Z,0.50
2023-05-04T16:45:16.827Z,0.55
2023-05-04T16:47:43.797Z,0.68
2023-05-04T16:50:11.073Z,0.50
2023-05-04T16:52:37.688Z,0.60
2023-05-04T16:55:04.285Z,0.50
2023-05-04T16:57:30.698Z,0.70
2023-05-04T16:59:57.126Z,0.50
2023-05-04T17:02:23.678Z,0.70
2023-05-04T17:04:50.178Z,0.57
2023-05-04T17:07:16.660Z,0.40
2023-05-04T17:09:43.116Z,0.57
2023-05-04T17:12:09.560Z,0.73
2023-05-04T17:14:35.975Z,0.60
2023-05-04T17:17:02.385Z,0.50
2023-05-04T17:19:28.850Z,0.50
2023-05-04T17:21:55.484Z,0.60
2023-05-04T17:24:21.887Z,0.57
2023-05-04T17:26:51.072Z,1.08
2023-05-04T17:29:17.505Z,1.00
2023-05-04T17:31:44.024Z,0.88
2023-05-04T17:34:10.474Z,0.80
2023-05-04T17:36:36.963Z,0.50
2023-05-04T17:39:04.037Z,0.55
2023-05-04T17:41:31.282Z,0.88
2023-05-04T17:43:59.827Z,0.70
2023-05-04T17:46:26.348Z,0.40
2023-05-04T17:48:53.739Z,0.50
2023-05-04T17:51:20.651Z,0.50
2023-05-04T17:53:47.092Z,0.60
2023-05-04T17:56:13.480Z,0.50
2023-05-04T17:58:39.981Z,0.98
2023-05-04T18:01:06.615Z,0.55
2023-05-04T18:03:33.204Z,1.05
2023-05-04T18:05:59.845Z,2.17
2023-05-04T18:08:26.274Z,2.65
2023-05-04T18:10:52.685Z,3.60
2023-05-04T18:13:19.158Z,2.30
2023-05-04T18:15:45.638Z,2.92
2023-05-04T18:18:12.150Z,3.35
2023-05-04T18:20:38.642Z,2.10
2023-05-04T18:23:05.096Z,2.33
2023-05-04T18:25:36.367Z,1.52
2023-05-04T18:28:02.871Z,0.70
2023-05-04T18:30:29.386Z,0.70
2023-05-04T18:32:55.995Z,0.80
2023-05-04T18:35:22.532Z,0.50
2023-05-04T18:37:49.634Z,0.60
2023-05-04T18:40:16.231Z,0.40
2023-05-04T18:42:45.260Z,0.60
2023-05-04T18:45:12.034Z,0.70
2023-05-04T18:47:38.555Z,0.60
2023-05-04T18:50:05.550Z,0.73
2023-05-04T18:52:32.340Z,0.52
2023-05-04T18:54:58.723Z,0.68
2023-05-04T18:57:25.481Z,0.60
2023-05-04T18:59:51.926Z,0.57
2023-05-04T19:02:18.537Z,0.65
2023-05-04T19:04:46.920Z,0.60
2023-05-04T19:07:15.198Z,0.50
2023-05-04T19:09:41.927Z,0.75
2023-05-04T19:12:08.435Z,0.60
2023-05-04T19:14:34.901Z,0.60
2023-05-04T19:17:08.257Z,0.65
2023-05-04T19:19:40.637Z,0.40
2023-05-04T19:22:07.591Z,0.50
2023-05-04T19:24:37.759Z,0.60
2023-05-04T19:27:04.307Z,0.52
2023-05-04T19:29:31.042Z,0.70
2023-05-04T19:31:59.575Z,0.77
2023-05-04T19:34:27.968Z,0.60
2023-05-04T19:36:54.351Z,0.77
2023-05-04T19:39:21.031Z,0.70
2023-05-04T19:41:47.488Z,0.50
2023-05-04T19:44:13.937Z,0.70
2023-05-04T19:46:41.065Z,0.70
2023-05-04T19:49:07.560Z,0.88
2023-05-04T19:51:34.521Z,0.63
2023-05-04T19:54:00.968Z,0.82
2023-05-04T19:56:27.459Z,0.65
2023-05-04T19:58:53.954Z,0.63
2023-05-04T20:01:20.577Z,0.52
2023-05-04T20:03:47.107Z,0.55
2023-05-04T20:06:13.639Z,0.60
2023-05-04T20:08:40.034Z,0.47
2023-05-04T20:11:06.784Z,0.70
2023-05-04T20:13:33.253Z,0.65
2023-05-04T20:15:59.630Z,0.60
2023-05-04T20:18:26.111Z,0.70
2023-05-04T20:20:52.614Z,0.60
2023-05-04T20:23:19.124Z,0.90
2023-05-04T20:25:46.185Z,0.80
2023-05-04T20:28:12.737Z,0.73
2023-05-04T20:30:39.284Z,0.80
2023-05-04T20:33:08.817Z,0.70
2023-05-04T20:35:35.435Z,0.60
2023-05-04T20:38:02.031Z,0.70
2023-05-04T20:40:28.975Z,0.70
2023-05-04T20:42:55.609Z,0.50
2023-05-04T20:45:22.083Z,0.70
2023-05-04T20:47:48.625Z,0.50
2023-05-04T20:50:18.385Z,0.60
2023-05-04T20:52:44.888Z,0.77
2023-05-04T20:55:11.349Z,0.70
2023-05-04T20:57:37.868Z,0.70
2023-05-04T21:00:04.681Z,0.60
2023-05-04T21:02:31.301Z,0.90
2023-05-04T21:04:57.803Z,0.73
2023-05-04T21:07:24.245Z,0.65
2023-05-04T21:09:55.594Z,0.77
2023-05-04T21:12:22.002Z,0.85
2023-05-04T21:14:48.422Z,0.70
2023-05-04T21:17:14.965Z,0.73
2023-05-04T21:19:41.376Z,0.60
2023-05-04T21:22:07.925Z,0.60
2023-05-04T21:24:34.436Z,0.60
2023-05-04T21:27:00.857Z,0.75
2023-05-04T21:29:27.365Z,0.70
2023-05-04T21:31:53.864Z,0.60
2023-05-04T21:34:20.324Z,1.00
2023-05-04T21:36:46.842Z,0.65
2023-05-04T21:39:13.962Z,0.90
2023-05-04T21:41:40.417Z,0.88
2023-05-04T21:44:06.821Z,1.90
2023-05-04T21:46:33.422Z,0.93
2023-05-04T21:48:59.889Z,0.77
2023-05-04T21:51:26.964Z,1.00
2023-05-04T21:53:53.462Z,0.82
2023-05-04T21:56:19.958Z,0.65
2023-05-04T21:58:46.518Z,0.75
2023-05-04T22:01:17.186Z,0.73
2023-05-04T22:03:44.066Z,0.60
2023-05-04T22:06:10.759Z,0.65
2023-05-04T22:08:37.421Z,0.80
2023-05-04T22:11:03.843Z,0.70
2023-05-04T22:13:30.343Z,0.70
2023-05-04T22:15:56.745Z,0.90
2023-05-04T22:18:23.680Z,0.68
2023-05-04T22:20:50.100Z,0.80
2023-05-04T22:23:16.692Z,1.05
2023-05-04T22:25:43.103Z,0.90
2023-05-04T22:28:09.561Z,0.70
2023-05-04T22:30:37.970Z,0.70
2023-05-04T22:33:04.492Z,0.80
2023-05-04T22:35:33.944Z,0.80
2023-05-04T22:38:00.480Z,0.93
2023-05-04T22:40:26.912Z,0.93
2023-05-04T22:42:53.353Z,0.75
2023-05-04T22:45:19.856Z,0.80
2023-05-04T22:47:48.908Z,0.90
2023-05-04T22:50:15.541Z,0.90
2023-05-04T22:52:42.072Z,0.98
2023-05-04T22:55:09.044Z,1.02
2023-05-04T22:57:35.545Z,0.63
2023-05-04T23:00:02.163Z,0.80
2023-05-04T23:02:28.688Z,0.90
2023-05-04T23:04:55.244Z,0.88
2023-05-04T23:07:21.721Z,0.95
2023-05-04T23:09:48.147Z,1.27
2023-05-04T23:12:15.287Z,0.70
2023-05-04T23:14:42.112Z,0.60
2023-05-04T23:17:09.414Z,0.98
2023-05-04T23:19:35.865Z,1.10
2023-05-04T23:22:02.469Z,1.08
2023-05-04T23:24:29.023Z,0.82
2023-05-04T23:26:55.472Z,0.90
2023-05-04T23:29:25.073Z,1.10
2023-05-04T23:31:52.727Z,1.00
2023-05-04T23:34:19.345Z,1.08
2023-05-04T23:36:45.871Z,0.93
2023-05-04T23:39:12.455Z,1.00
2023-05-04T23:41:38.912Z,0.80
2023-05-04T23:44:05.294Z,1.05
2023-05-04T23:46:33.816Z,1.20
2023-05-04T23:49:00.248Z,0.80
2023-05-04T23:51:28.519Z,1.10
2023-05-04T23:53:55.736Z,0.80
2023-05-04T23:56:22.320Z,0.80
2023-05-04T23:58:48.983Z,0.98
